ANA225 RJGG-ROAH
Flight info
| Callsign | ANA225 |
|---|---|
| Flight time | 1h 59m |
| Altitude | 32000 |
| Route | ESPAN KEC Y12 LAXEL Y52 TONAR Y525 IHEYA |
| Aircraft | B738/M-SDE2E3FGHIRWXY/LB1 |
Departure
| Time | 2026-04-26 12:54 |
|---|---|
| Airport | Chubu Centrair International Airport (RJGG) |
Arrival
| Time | 2026-04-26 14:53 |
|---|---|
| Airport | Naha International Airport (ROAH) |
| Time | Latitude | Longitude | Altitude | Speed | Heading |
|---|---|---|---|---|---|
| 2026-04-26 12:26 | 34.85915 | 136.81143 | 19 ft | 0 kts | 170° |
| 2026-04-26 12:45 | 34.85916 | 136.81143 | 45 ft | 1 kts | 170° |
| 2026-04-26 12:45 | 34.85931 | 136.81140 | 19 ft | 3 kts | 171° |
| 2026-04-26 12:45 | 34.85951 | 136.81137 | 19 ft | 3 kts | 178° |
| 2026-04-26 12:45 | 34.85971 | 136.81137 | 19 ft | 3 kts | 189° |
| 2026-04-26 12:46 | 34.85990 | 136.81143 | 20 ft | 3 kts | 204° |
| 2026-04-26 12:46 | 34.86000 | 136.81149 | 19 ft | 0 kts | 211° |
| 2026-04-26 12:47 | 34.86023 | 136.81149 | 18 ft | 0 kts | 254° |
| 2026-04-26 12:48 | 34.86018 | 136.81126 | 18 ft | 0 kts | 258° |
| 2026-04-26 12:49 | 34.86016 | 136.81114 | 18 ft | 3 kts | 258° |
| 2026-04-26 12:49 | 34.86009 | 136.81076 | 19 ft | 7 kts | 258° |
| 2026-04-26 12:49 | 34.85996 | 136.80990 | 20 ft | 14 kts | 260° |
| 2026-04-26 12:49 | 34.85948 | 136.80874 | 18 ft | 17 kts | 199° |
| 2026-04-26 12:50 | 34.85836 | 136.80894 | 18 ft | 11 kts | 168° |
| 2026-04-26 12:50 | 34.85743 | 136.80917 | 19 ft | 16 kts | 168° |
| 2026-04-26 12:50 | 34.85617 | 136.80947 | 20 ft | 21 kts | 168° |
| 2026-04-26 12:50 | 34.85464 | 136.80984 | 18 ft | 15 kts | 169° |
| 2026-04-26 12:51 | 34.85344 | 136.81013 | 18 ft | 20 kts | 168° |
| 2026-04-26 12:51 | 34.85195 | 136.81048 | 18 ft | 24 kts | 168° |
| 2026-04-26 12:51 | 34.85021 | 136.81091 | 18 ft | 27 kts | 170° |
| 2026-04-26 12:51 | 34.84826 | 136.81139 | 18 ft | 30 kts | 169° |
| 2026-04-26 12:52 | 34.84646 | 136.81181 | 19 ft | 18 kts | 167° |
| 2026-04-26 12:52 | 34.84515 | 136.81214 | 18 ft | 15 kts | 168° |
| 2026-04-26 12:52 | 34.84436 | 136.81150 | 18 ft | 17 kts | 259° |
| 2026-04-26 12:52 | 34.84410 | 136.80989 | 18 ft | 17 kts | 256° |
| 2026-04-26 12:53 | 34.84447 | 136.80870 | 19 ft | 17 kts | 341° |
| 2026-04-26 12:53 | 34.84468 | 136.80864 | 17 ft | 0 kts | 349° |
| 2026-04-26 12:53 | 34.84475 | 136.80862 | 19 ft | 4 kts | 349° |
| 2026-04-26 12:54 | 34.84718 | 136.80804 | 20 ft | 67 kts | 349° |
| 2026-04-26 12:54 | 34.85139 | 136.80703 | 20 ft | 115 kts | 349° |
| 2026-04-26 12:54 | 34.86132 | 136.80473 | 49 ft | 171 kts | 353° |
| 2026-04-26 12:54 | 34.87326 | 136.80172 | 750 ft | 177 kts | 351° |
| 2026-04-26 12:55 | 34.88535 | 136.79745 | 1530 ft | 184 kts | 336° |
| 2026-04-26 12:55 | 34.89516 | 136.78652 | 1996 ft | 211 kts | 302° |
| 2026-04-26 12:55 | 34.89889 | 136.76851 | 2229 ft | 231 kts | 262° |
| 2026-04-26 12:55 | 34.89473 | 136.74955 | 2593 ft | 237 kts | 249° |
| 2026-04-26 12:56 | 34.88959 | 136.73023 | 3171 ft | 238 kts | 249° |
| 2026-04-26 12:56 | 34.88446 | 136.71106 | 3815 ft | 237 kts | 249° |
| 2026-04-26 12:56 | 34.87930 | 136.69188 | 4490 ft | 238 kts | 250° |
| 2026-04-26 12:56 | 34.87394 | 136.67295 | 5245 ft | 234 kts | 241° |
| 2026-04-26 12:57 | 34.86322 | 136.65884 | 5819 ft | 228 kts | 200° |
| 2026-04-26 12:57 | 34.84821 | 136.65680 | 6396 ft | 221 kts | 166° |
| 2026-04-26 12:57 | 34.83269 | 136.65771 | 6987 ft | 228 kts | 195° |
| 2026-04-26 12:58 | 34.80478 | 136.63907 | 8243 ft | 230 kts | 198° |
| 2026-04-26 12:58 | 34.78946 | 136.63749 | 8877 ft | 221 kts | 166° |
| 2026-04-26 12:58 | 34.77525 | 136.64428 | 9516 ft | 222 kts | 146° |
| 2026-04-26 12:58 | 34.76371 | 136.65686 | 10124 ft | 225 kts | 135° |
| 2026-04-26 12:59 | 34.75331 | 136.67122 | 10693 ft | 227 kts | 135° |
| 2026-04-26 12:59 | 34.74290 | 136.68576 | 11293 ft | 228 kts | 134° |
| 2026-04-26 12:59 | 34.73338 | 136.70113 | 11969 ft | 229 kts | 130° |
| 2026-04-26 12:59 | 34.72487 | 136.71787 | 12496 ft | 237 kts | 124° |
| 2026-04-26 13:00 | 34.71791 | 136.73598 | 13079 ft | 242 kts | 120° |
| 2026-04-26 13:00 | 34.70833 | 136.75195 | 13615 ft | 232 kts | 153° |
| 2026-04-26 13:00 | 34.69323 | 136.75620 | 14169 ft | 227 kts | 189° |
| 2026-04-26 13:00 | 34.67811 | 136.74994 | 14680 ft | 233 kts | 199° |
| 2026-04-26 13:01 | 34.66287 | 136.74278 | 15222 ft | 236 kts | 198° |
| 2026-04-26 13:01 | 34.64719 | 136.73613 | 15687 ft | 244 kts | 196° |
| 2026-04-26 13:01 | 34.63024 | 136.72971 | 15805 ft | 265 kts | 195° |
| 2026-04-26 13:01 | 34.61182 | 136.72327 | 15964 ft | 285 kts | 194° |
| 2026-04-26 13:02 | 34.59215 | 136.71668 | 16249 ft | 300 kts | 194° |
| 2026-04-26 13:02 | 34.57176 | 136.70997 | 16782 ft | 305 kts | 194° |
| 2026-04-26 13:02 | 34.55107 | 136.70322 | 17373 ft | 309 kts | 194° |
| 2026-04-26 13:02 | 34.53015 | 136.69645 | 17964 ft | 313 kts | 194° |
| 2026-04-26 13:03 | 34.50923 | 136.68970 | 18507 ft | 317 kts | 195° |
| 2026-04-26 13:03 | 34.48755 | 136.68271 | 19061 ft | 319 kts | 195° |
| 2026-04-26 13:03 | 34.46633 | 136.67586 | 19626 ft | 321 kts | 196° |
| 2026-04-26 13:03 | 34.44466 | 136.66887 | 20188 ft | 323 kts | 196° |
| 2026-04-26 13:04 | 34.42285 | 136.66184 | 20728 ft | 326 kts | 197° |
| 2026-04-26 13:04 | 34.40076 | 136.65472 | 21289 ft | 329 kts | 197° |
| 2026-04-26 13:04 | 34.37827 | 136.64746 | 21477 ft | 342 kts | 197° |
| 2026-04-26 13:04 | 34.35474 | 136.63985 | 21600 ft | 357 kts | 197° |
| 2026-04-26 13:05 | 34.33029 | 136.63197 | 21701 ft | 371 kts | 197° |
| 2026-04-26 13:05 | 34.30494 | 136.62382 | 21814 ft | 383 kts | 197° |
| 2026-04-26 13:05 | 34.27888 | 136.61546 | 22116 ft | 389 kts | 197° |
| 2026-04-26 13:05 | 34.25304 | 136.60718 | 22592 ft | 390 kts | 198° |
| 2026-04-26 13:06 | 34.22674 | 136.59875 | 23069 ft | 391 kts | 198° |
| 2026-04-26 13:06 | 34.20044 | 136.58993 | 23503 ft | 392 kts | 202° |
| 2026-04-26 13:06 | 34.17626 | 136.57488 | 23825 ft | 390 kts | 218° |
| 2026-04-26 13:06 | 34.15558 | 136.55382 | 24230 ft | 389 kts | 222° |
| 2026-04-26 13:07 | 34.13552 | 136.53188 | 24618 ft | 390 kts | 223° |
| 2026-04-26 13:07 | 34.11528 | 136.50950 | 24688 ft | 399 kts | 223° |
| 2026-04-26 13:07 | 34.09458 | 136.48667 | 24747 ft | 408 kts | 222° |
| 2026-04-26 13:07 | 34.07336 | 136.46341 | 24782 ft | 416 kts | 221° |
| 2026-04-26 13:08 | 34.05167 | 136.43978 | 24829 ft | 422 kts | 221° |
| 2026-04-26 13:08 | 34.03001 | 136.41629 | 24866 ft | 426 kts | 221° |
| 2026-04-26 13:08 | 34.00780 | 136.39228 | 24897 ft | 431 kts | 221° |
| 2026-04-26 13:08 | 33.98534 | 136.36806 | 24922 ft | 435 kts | 221° |
| 2026-04-26 13:09 | 33.96267 | 136.34364 | 24953 ft | 439 kts | 221° |
| 2026-04-26 13:09 | 33.93985 | 136.31908 | 24969 ft | 441 kts | 221° |
| 2026-04-26 13:09 | 33.91686 | 136.29436 | 25018 ft | 444 kts | 221° |
| 2026-04-26 13:09 | 33.89384 | 136.26962 | 25146 ft | 443 kts | 221° |
| 2026-04-26 13:10 | 33.87083 | 136.24491 | 25333 ft | 442 kts | 221° |
| 2026-04-26 13:10 | 33.84793 | 136.22034 | 25543 ft | 440 kts | 221° |
| 2026-04-26 13:10 | 33.82508 | 136.19583 | 25769 ft | 440 kts | 221° |
| 2026-04-26 13:10 | 33.80230 | 136.17141 | 26058 ft | 438 kts | 221° |
| 2026-04-26 13:11 | 33.77957 | 136.14708 | 26414 ft | 435 kts | 221° |
| 2026-04-26 13:11 | 33.75705 | 136.12298 | 26807 ft | 431 kts | 221° |
| 2026-04-26 13:11 | 33.73465 | 136.09902 | 27138 ft | 430 kts | 221° |
| 2026-04-26 13:11 | 33.71230 | 136.07514 | 27384 ft | 430 kts | 220° |
| 2026-04-26 13:12 | 33.69025 | 136.05160 | 27683 ft | 429 kts | 220° |
| 2026-04-26 13:12 | 33.66795 | 136.02781 | 28049 ft | 426 kts | 220° |
| 2026-04-26 13:12 | 33.64585 | 136.00425 | 28437 ft | 424 kts | 220° |
| 2026-04-26 13:12 | 33.62379 | 135.98074 | 28813 ft | 422 kts | 220° |
| 2026-04-26 13:13 | 33.60188 | 135.95741 | 29165 ft | 420 kts | 220° |
| 2026-04-26 13:13 | 33.58010 | 135.93423 | 29604 ft | 417 kts | 220° |
| 2026-04-26 13:13 | 33.55840 | 135.91116 | 30018 ft | 414 kts | 220° |
| 2026-04-26 13:13 | 33.53713 | 135.88855 | 30348 ft | 412 kts | 220° |
| 2026-04-26 13:14 | 33.51572 | 135.86582 | 30699 ft | 410 kts | 220° |
| 2026-04-26 13:14 | 33.49444 | 135.84323 | 31056 ft | 407 kts | 220° |
| 2026-04-26 13:14 | 33.47333 | 135.82085 | 31436 ft | 404 kts | 220° |
| 2026-04-26 13:14 | 33.45200 | 135.79922 | 31795 ft | 401 kts | 215° |
| 2026-04-26 13:15 | 33.42757 | 135.78293 | 31892 ft | 402 kts | 204° |
| 2026-04-26 13:15 | 33.40149 | 135.77067 | 31928 ft | 402 kts | 203° |
| 2026-04-26 13:15 | 33.34912 | 135.74663 | 31910 ft | 405 kts | 203° |
| 2026-04-26 13:16 | 33.29644 | 135.72204 | 31910 ft | 407 kts | 204° |
| 2026-04-26 13:16 | 33.24391 | 135.69723 | 31910 ft | 408 kts | 204° |
| 2026-04-26 13:17 | 33.16461 | 135.65970 | 31906 ft | 408 kts | 204° |
| 2026-04-26 13:18 | 33.08533 | 135.62228 | 31906 ft | 408 kts | 204° |
| 2026-04-26 13:19 | 33.00661 | 135.58516 | 31903 ft | 407 kts | 204° |
| 2026-04-26 13:19 | 32.95394 | 135.56034 | 31897 ft | 406 kts | 204° |
| 2026-04-26 13:20 | 32.90141 | 135.53562 | 31871 ft | 405 kts | 204° |
| 2026-04-26 13:20 | 32.84901 | 135.51099 | 31893 ft | 405 kts | 204° |
| 2026-04-26 13:21 | 32.79695 | 135.48654 | 31898 ft | 404 kts | 204° |
| 2026-04-26 13:21 | 32.74447 | 135.46194 | 31893 ft | 405 kts | 204° |
| 2026-04-26 13:22 | 32.69207 | 135.43740 | 31897 ft | 405 kts | 204° |
| 2026-04-26 13:22 | 32.63960 | 135.41286 | 31888 ft | 405 kts | 204° |
| 2026-04-26 13:23 | 32.58747 | 135.38851 | 31898 ft | 405 kts | 204° |
| 2026-04-26 13:23 | 32.53511 | 135.36408 | 31901 ft | 403 kts | 203° |
| 2026-04-26 13:24 | 32.48289 | 135.33975 | 31892 ft | 402 kts | 203° |
| 2026-04-26 13:24 | 32.43090 | 135.31555 | 31896 ft | 401 kts | 203° |
| 2026-04-26 13:25 | 32.37898 | 135.29142 | 31891 ft | 401 kts | 203° |
| 2026-04-26 13:25 | 32.32697 | 135.26727 | 31901 ft | 401 kts | 203° |
| 2026-04-26 13:26 | 32.27501 | 135.24318 | 31901 ft | 401 kts | 203° |
| 2026-04-26 13:26 | 32.22333 | 135.21924 | 31901 ft | 401 kts | 203° |
| 2026-04-26 13:27 | 32.17125 | 135.19515 | 31889 ft | 402 kts | 203° |
| 2026-04-26 13:27 | 32.12024 | 135.16847 | 31896 ft | 400 kts | 212° |
| 2026-04-26 13:28 | 32.07616 | 135.12878 | 31896 ft | 401 kts | 221° |
| 2026-04-26 13:28 | 32.03969 | 135.07857 | 31902 ft | 404 kts | 229° |
| 2026-04-26 13:29 | 32.00557 | 135.02579 | 31903 ft | 405 kts | 229° |
| 2026-04-26 13:29 | 31.97143 | 134.97309 | 31910 ft | 401 kts | 228° |
| 2026-04-26 13:30 | 31.93791 | 134.92167 | 31896 ft | 392 kts | 228° |
| 2026-04-26 13:30 | 31.90472 | 134.87103 | 31897 ft | 394 kts | 228° |
| 2026-04-26 13:31 | 31.87111 | 134.81988 | 31907 ft | 395 kts | 228° |
| 2026-04-26 13:31 | 31.83737 | 134.76856 | 31900 ft | 397 kts | 228° |
| 2026-04-26 13:32 | 31.80354 | 134.71717 | 31899 ft | 397 kts | 228° |
| 2026-04-26 13:32 | 31.76963 | 134.66572 | 31899 ft | 398 kts | 228° |
| 2026-04-26 13:33 | 31.73570 | 134.61429 | 31921 ft | 398 kts | 228° |
| 2026-04-26 13:33 | 31.70228 | 134.56369 | 31897 ft | 391 kts | 227° |
| 2026-04-26 13:34 | 31.66916 | 134.51361 | 31897 ft | 387 kts | 227° |
| 2026-04-26 13:34 | 31.63609 | 134.46373 | 31895 ft | 386 kts | 227° |
| 2026-04-26 13:35 | 31.60310 | 134.41402 | 31923 ft | 386 kts | 227° |
| 2026-04-26 13:35 | 31.57013 | 134.36439 | 31869 ft | 385 kts | 227° |
| 2026-04-26 13:36 | 31.53726 | 134.31498 | 31892 ft | 384 kts | 227° |
| 2026-04-26 13:36 | 31.50430 | 134.26550 | 31892 ft | 384 kts | 227° |
| 2026-04-26 13:37 | 31.47156 | 134.21641 | 31934 ft | 384 kts | 227° |
| 2026-04-26 13:37 | 31.43861 | 134.16706 | 31890 ft | 384 kts | 227° |
| 2026-04-26 13:38 | 31.40576 | 134.11792 | 31894 ft | 383 kts | 227° |
| 2026-04-26 13:38 | 31.37290 | 134.06883 | 31895 ft | 382 kts | 227° |
| 2026-04-26 13:39 | 31.34008 | 134.01986 | 31926 ft | 382 kts | 227° |
| 2026-04-26 13:39 | 31.30736 | 133.97111 | 31891 ft | 383 kts | 227° |
| 2026-04-26 13:40 | 31.27442 | 133.92208 | 31895 ft | 383 kts | 227° |
| 2026-04-26 13:40 | 31.24152 | 133.87317 | 31894 ft | 383 kts | 227° |
| 2026-04-26 13:41 | 31.20857 | 133.82426 | 31902 ft | 383 kts | 228° |
| 2026-04-26 13:41 | 31.18114 | 133.78359 | 31898 ft | 384 kts | 228° |
| 2026-04-26 13:42 | 31.14264 | 133.72657 | 31893 ft | 384 kts | 228° |
| 2026-04-26 13:42 | 31.11488 | 133.68550 | 31893 ft | 384 kts | 228° |
| 2026-04-26 13:43 | 31.08176 | 133.63655 | 31878 ft | 384 kts | 228° |
| 2026-04-26 13:43 | 31.04850 | 133.58747 | 31907 ft | 387 kts | 228° |
| 2026-04-26 13:44 | 31.01518 | 133.53838 | 31900 ft | 389 kts | 228° |
| 2026-04-26 13:44 | 30.98141 | 133.48865 | 31896 ft | 391 kts | 228° |
| 2026-04-26 13:45 | 30.94765 | 133.43895 | 31892 ft | 391 kts | 228° |
| 2026-04-26 13:45 | 30.91402 | 133.38952 | 31908 ft | 393 kts | 229° |
| 2026-04-26 13:46 | 30.87989 | 133.33941 | 31900 ft | 395 kts | 229° |
| 2026-04-26 13:46 | 30.84558 | 133.28910 | 31899 ft | 397 kts | 229° |
| 2026-04-26 13:47 | 30.81119 | 133.23872 | 31889 ft | 396 kts | 229° |
| 2026-04-26 13:47 | 30.77679 | 133.18841 | 31906 ft | 399 kts | 230° |
| 2026-04-26 13:48 | 30.74232 | 133.13806 | 31906 ft | 402 kts | 230° |
| 2026-04-26 13:48 | 30.70740 | 133.08712 | 31887 ft | 404 kts | 230° |
| 2026-04-26 13:49 | 30.67233 | 133.03601 | 31898 ft | 404 kts | 230° |
| 2026-04-26 13:49 | 30.63723 | 132.98494 | 31912 ft | 406 kts | 230° |
| 2026-04-26 13:50 | 30.60191 | 132.93360 | 31911 ft | 408 kts | 230° |
| 2026-04-26 13:50 | 30.56647 | 132.88216 | 31908 ft | 409 kts | 230° |
| 2026-04-26 13:51 | 30.53090 | 132.83061 | 31911 ft | 409 kts | 230° |
| 2026-04-26 13:51 | 30.49530 | 132.77907 | 31907 ft | 409 kts | 230° |
| 2026-04-26 13:52 | 30.45966 | 132.72755 | 31904 ft | 409 kts | 230° |
| 2026-04-26 13:52 | 30.42424 | 132.67640 | 31900 ft | 409 kts | 230° |
| 2026-04-26 13:53 | 30.38858 | 132.62499 | 31908 ft | 409 kts | 230° |
| 2026-04-26 13:53 | 30.35291 | 132.57363 | 31915 ft | 410 kts | 231° |
| 2026-04-26 13:54 | 30.31703 | 132.52201 | 31917 ft | 411 kts | 231° |
| 2026-04-26 13:54 | 30.28113 | 132.47043 | 31909 ft | 412 kts | 231° |
| 2026-04-26 13:55 | 30.23346 | 132.40207 | 31938 ft | 412 kts | 231° |
| 2026-04-26 13:56 | 30.17306 | 132.31561 | 31892 ft | 415 kts | 232° |
| 2026-04-26 13:56 | 30.13675 | 132.26372 | 31906 ft | 415 kts | 232° |
| 2026-04-26 13:57 | 30.10053 | 132.21203 | 31915 ft | 415 kts | 232° |
| 2026-04-26 13:57 | 30.06404 | 132.16002 | 31922 ft | 418 kts | 232° |
| 2026-04-26 13:58 | 30.02730 | 132.10772 | 31902 ft | 420 kts | 232° |
| 2026-04-26 13:58 | 29.99067 | 132.05564 | 31919 ft | 420 kts | 232° |
| 2026-04-26 13:59 | 29.95374 | 132.00321 | 31920 ft | 421 kts | 232° |
| 2026-04-26 13:59 | 29.91669 | 131.95067 | 31927 ft | 423 kts | 233° |
| 2026-04-26 14:00 | 29.84218 | 131.84519 | 31926 ft | 425 kts | 233° |
| 2026-04-26 14:01 | 29.80473 | 131.79256 | 31925 ft | 425 kts | 232° |
| 2026-04-26 14:01 | 29.76636 | 131.74057 | 31889 ft | 427 kts | 232° |
| 2026-04-26 14:02 | 29.72764 | 131.68857 | 31917 ft | 428 kts | 232° |
| 2026-04-26 14:02 | 29.68920 | 131.63686 | 31928 ft | 428 kts | 232° |
| 2026-04-26 14:03 | 29.65049 | 131.58470 | 31926 ft | 429 kts | 232° |
| 2026-04-26 14:03 | 29.61170 | 131.53245 | 31917 ft | 429 kts | 233° |
| 2026-04-26 14:04 | 29.57282 | 131.48013 | 31933 ft | 430 kts | 233° |
| 2026-04-26 14:04 | 29.53413 | 131.42814 | 31932 ft | 431 kts | 232° |
| 2026-04-26 14:05 | 29.49511 | 131.37578 | 31932 ft | 431 kts | 232° |
| 2026-04-26 14:05 | 29.45611 | 131.32352 | 31931 ft | 431 kts | 233° |
| 2026-04-26 14:06 | 29.41711 | 131.27132 | 31938 ft | 431 kts | 233° |
| 2026-04-26 14:06 | 29.37802 | 131.21907 | 31942 ft | 431 kts | 233° |
| 2026-04-26 14:07 | 29.33891 | 131.16685 | 31919 ft | 431 kts | 233° |
| 2026-04-26 14:07 | 29.30007 | 131.11506 | 31938 ft | 431 kts | 233° |
| 2026-04-26 14:08 | 29.26081 | 131.06279 | 31945 ft | 433 kts | 233° |
| 2026-04-26 14:08 | 29.22148 | 131.01047 | 31945 ft | 434 kts | 233° |
| 2026-04-26 14:09 | 29.18197 | 130.95800 | 31947 ft | 434 kts | 233° |
| 2026-04-26 14:09 | 29.14267 | 130.90587 | 31951 ft | 434 kts | 233° |
| 2026-04-26 14:10 | 29.10312 | 130.85348 | 31950 ft | 435 kts | 233° |
| 2026-04-26 14:10 | 29.06348 | 130.80103 | 31943 ft | 436 kts | 233° |
| 2026-04-26 14:11 | 29.00401 | 130.72247 | 31940 ft | 435 kts | 233° |
| 2026-04-26 14:11 | 28.96434 | 130.67016 | 31951 ft | 435 kts | 233° |
| 2026-04-26 14:12 | 28.92490 | 130.61821 | 31948 ft | 435 kts | 233° |
| 2026-04-26 14:12 | 28.88522 | 130.56601 | 31927 ft | 435 kts | 233° |
| 2026-04-26 14:13 | 28.82568 | 130.48781 | 31952 ft | 434 kts | 233° |
| 2026-04-26 14:14 | 28.78608 | 130.43587 | 31954 ft | 434 kts | 233° |
| 2026-04-26 14:14 | 28.74664 | 130.38421 | 31954 ft | 435 kts | 233° |
| 2026-04-26 14:15 | 28.70692 | 130.33226 | 31955 ft | 434 kts | 233° |
| 2026-04-26 14:15 | 28.66721 | 130.28039 | 31961 ft | 434 kts | 233° |
| 2026-04-26 14:16 | 28.62750 | 130.22858 | 31962 ft | 434 kts | 233° |
| 2026-04-26 14:16 | 28.58771 | 130.17672 | 31943 ft | 435 kts | 233° |
| 2026-04-26 14:17 | 28.54785 | 130.12485 | 31962 ft | 434 kts | 233° |
| 2026-04-26 14:17 | 28.50835 | 130.07351 | 31966 ft | 434 kts | 233° |
| 2026-04-26 14:18 | 28.46854 | 130.02182 | 31965 ft | 434 kts | 233° |
| 2026-04-26 14:18 | 28.42867 | 129.97012 | 31948 ft | 434 kts | 233° |
| 2026-04-26 14:19 | 28.38906 | 129.91882 | 31963 ft | 433 kts | 233° |
| 2026-04-26 14:19 | 28.34927 | 129.86736 | 31968 ft | 433 kts | 233° |
| 2026-04-26 14:20 | 28.30946 | 129.81593 | 31967 ft | 433 kts | 233° |
| 2026-04-26 14:20 | 28.26964 | 129.76454 | 31949 ft | 433 kts | 233° |
| 2026-04-26 14:21 | 28.22985 | 129.71328 | 31972 ft | 433 kts | 233° |
| 2026-04-26 14:21 | 28.19028 | 129.66234 | 31972 ft | 433 kts | 233° |
| 2026-04-26 14:22 | 28.15045 | 129.61113 | 31973 ft | 433 kts | 232° |
| 2026-04-26 14:22 | 28.11056 | 129.55991 | 31957 ft | 433 kts | 232° |
| 2026-04-26 14:23 | 28.07069 | 129.50878 | 31970 ft | 433 kts | 232° |
| 2026-04-26 14:23 | 28.03081 | 129.45771 | 31982 ft | 433 kts | 232° |
| 2026-04-26 14:24 | 27.99095 | 129.40670 | 31980 ft | 433 kts | 232° |
| 2026-04-26 14:24 | 27.95126 | 129.35599 | 31961 ft | 433 kts | 232° |
| 2026-04-26 14:25 | 27.91133 | 129.30503 | 31979 ft | 433 kts | 232° |
| 2026-04-26 14:25 | 27.87137 | 129.25408 | 31984 ft | 433 kts | 232° |
| 2026-04-26 14:26 | 27.83131 | 129.20306 | 31988 ft | 433 kts | 232° |
| 2026-04-26 14:26 | 27.79146 | 129.15237 | 31962 ft | 433 kts | 232° |
| 2026-04-26 14:27 | 27.75145 | 129.10156 | 31986 ft | 433 kts | 232° |
| 2026-04-26 14:27 | 27.71133 | 129.05068 | 31991 ft | 433 kts | 232° |
| 2026-04-26 14:28 | 27.67122 | 128.99983 | 31991 ft | 434 kts | 232° |
| 2026-04-26 14:28 | 27.63778 | 128.95749 | 31993 ft | 434 kts | 232° |
| 2026-04-26 14:29 | 27.59759 | 128.90664 | 31992 ft | 434 kts | 232° |
| 2026-04-26 14:29 | 27.55732 | 128.85575 | 31993 ft | 435 kts | 232° |
| 2026-04-26 14:30 | 27.51699 | 128.80485 | 31994 ft | 435 kts | 232° |
| 2026-04-26 14:30 | 27.47698 | 128.75441 | 31985 ft | 431 kts | 232° |
| 2026-04-26 14:31 | 27.43758 | 128.70441 | 31987 ft | 423 kts | 235° |
| 2026-04-26 14:31 | 27.40617 | 128.64908 | 32003 ft | 419 kts | 243° |
| 2026-04-26 14:32 | 27.37679 | 128.59233 | 31999 ft | 420 kts | 243° |
| 2026-04-26 14:32 | 27.34711 | 128.53561 | 32009 ft | 421 kts | 243° |
| 2026-04-26 14:33 | 27.31721 | 128.47881 | 31971 ft | 423 kts | 243° |
| 2026-04-26 14:33 | 27.28718 | 128.42186 | 31992 ft | 423 kts | 243° |
| 2026-04-26 14:34 | 27.25729 | 128.36527 | 32002 ft | 424 kts | 243° |
| 2026-04-26 14:34 | 27.22707 | 128.30809 | 31579 ft | 431 kts | 242° |
| 2026-04-26 14:34 | 27.21175 | 128.27914 | 30930 ft | 429 kts | 242° |
| 2026-04-26 14:35 | 27.19650 | 128.25035 | 30189 ft | 429 kts | 242° |
| 2026-04-26 14:35 | 27.18126 | 128.22158 | 29299 ft | 429 kts | 242° |
| 2026-04-26 14:35 | 27.16597 | 128.19275 | 28384 ft | 429 kts | 242° |
| 2026-04-26 14:35 | 27.15070 | 128.16395 | 27513 ft | 429 kts | 242° |
| 2026-04-26 14:36 | 27.13542 | 128.13517 | 26819 ft | 426 kts | 242° |
| 2026-04-26 14:36 | 27.12039 | 128.10691 | 26192 ft | 421 kts | 242° |
| 2026-04-26 14:36 | 27.10555 | 128.07912 | 25504 ft | 419 kts | 242° |
| 2026-04-26 14:36 | 27.09057 | 128.05120 | 24895 ft | 415 kts | 242° |
| 2026-04-26 14:37 | 27.07574 | 128.02357 | 24284 ft | 412 kts | 242° |
| 2026-04-26 14:37 | 27.06094 | 127.99601 | 23664 ft | 409 kts | 242° |
| 2026-04-26 14:37 | 27.04627 | 127.96869 | 22972 ft | 406 kts | 242° |
| 2026-04-26 14:37 | 27.03044 | 127.94255 | 22310 ft | 407 kts | 231° |
| 2026-04-26 14:38 | 27.00825 | 127.92256 | 21682 ft | 413 kts | 214° |
| 2026-04-26 14:38 | 26.98194 | 127.90940 | 21095 ft | 417 kts | 202° |
| 2026-04-26 14:38 | 26.95312 | 127.90368 | 20488 ft | 425 kts | 187° |
| 2026-04-26 14:38 | 26.92399 | 127.90383 | 19911 ft | 424 kts | 184° |
| 2026-04-26 14:39 | 26.89454 | 127.90499 | 19308 ft | 422 kts | 182° |
| 2026-04-26 14:39 | 26.86524 | 127.90637 | 18709 ft | 421 kts | 182° |
| 2026-04-26 14:39 | 26.83603 | 127.90768 | 18062 ft | 419 kts | 182° |
| 2026-04-26 14:39 | 26.80704 | 127.90883 | 17421 ft | 416 kts | 182° |
| 2026-04-26 14:40 | 26.77817 | 127.90984 | 16809 ft | 412 kts | 182° |
| 2026-04-26 14:40 | 26.74959 | 127.91074 | 16220 ft | 409 kts | 182° |
| 2026-04-26 14:40 | 26.72122 | 127.91159 | 15645 ft | 405 kts | 182° |
| 2026-04-26 14:40 | 26.69316 | 127.91240 | 15044 ft | 402 kts | 182° |
| 2026-04-26 14:41 | 26.66519 | 127.91321 | 14452 ft | 401 kts | 182° |
| 2026-04-26 14:41 | 26.63735 | 127.91400 | 13872 ft | 399 kts | 182° |
| 2026-04-26 14:41 | 26.61001 | 127.91479 | 13243 ft | 398 kts | 182° |
| 2026-04-26 14:41 | 26.58240 | 127.91559 | 12647 ft | 394 kts | 182° |
| 2026-04-26 14:42 | 26.55510 | 127.91639 | 12074 ft | 391 kts | 181° |
| 2026-04-26 14:42 | 26.52819 | 127.91718 | 11837 ft | 379 kts | 181° |
| 2026-04-26 14:42 | 26.50232 | 127.91795 | 11670 ft | 366 kts | 181° |
| 2026-04-26 14:42 | 26.47721 | 127.91869 | 11513 ft | 354 kts | 181° |
| 2026-04-26 14:43 | 26.45291 | 127.91939 | 11362 ft | 343 kts | 182° |
| 2026-04-26 14:43 | 26.42972 | 127.92007 | 11224 ft | 333 kts | 182° |
| 2026-04-26 14:43 | 26.40707 | 127.92072 | 11088 ft | 323 kts | 182° |
| 2026-04-26 14:43 | 26.38534 | 127.91776 | 10802 ft | 312 kts | 204° |
| 2026-04-26 14:44 | 26.36563 | 127.90805 | 10471 ft | 308 kts | 208° |
| 2026-04-26 14:44 | 26.34621 | 127.89790 | 10088 ft | 309 kts | 208° |
| 2026-04-26 14:44 | 26.32688 | 127.88782 | 9964 ft | 300 kts | 208° |
| 2026-04-26 14:44 | 26.30836 | 127.87824 | 9940 ft | 287 kts | 208° |
| 2026-04-26 14:45 | 26.29061 | 127.86910 | 9727 ft | 276 kts | 208° |
| 2026-04-26 14:45 | 26.27908 | 127.86317 | 9441 ft | 275 kts | 208° |
| 2026-04-26 14:45 | 26.25590 | 127.85127 | 8817 ft | 273 kts | 208° |
| 2026-04-26 14:45 | 26.23869 | 127.84245 | 8378 ft | 271 kts | 208° |
| 2026-04-26 14:46 | 26.22159 | 127.83371 | 7938 ft | 269 kts | 207° |
| 2026-04-26 14:46 | 26.20484 | 127.82515 | 7523 ft | 267 kts | 207° |
| 2026-04-26 14:46 | 26.18803 | 127.81657 | 7113 ft | 265 kts | 207° |
| 2026-04-26 14:46 | 26.17128 | 127.80802 | 6656 ft | 265 kts | 207° |
| 2026-04-26 14:47 | 26.15450 | 127.79947 | 6168 ft | 265 kts | 207° |
| 2026-04-26 14:47 | 26.13766 | 127.79088 | 5673 ft | 266 kts | 207° |
| 2026-04-26 14:47 | 26.12097 | 127.78239 | 5346 ft | 259 kts | 207° |
| 2026-04-26 14:47 | 26.10464 | 127.77408 | 5011 ft | 257 kts | 207° |
| 2026-04-26 14:48 | 26.08838 | 127.76580 | 4694 ft | 257 kts | 207° |
| 2026-04-26 14:48 | 26.07239 | 127.75768 | 4343 ft | 253 kts | 207° |
| 2026-04-26 14:48 | 26.05817 | 127.74704 | 4000 ft | 241 kts | 234° |
| 2026-04-26 14:48 | 26.05118 | 127.73082 | 3751 ft | 228 kts | 257° |
| 2026-04-26 14:49 | 26.04912 | 127.71349 | 3475 ft | 224 kts | 270° |
| 2026-04-26 14:49 | 26.04860 | 127.69650 | 3201 ft | 220 kts | 271° |
| 2026-04-26 14:49 | 26.04824 | 127.67967 | 2909 ft | 214 kts | 275° |
| 2026-04-26 14:49 | 26.05239 | 127.66457 | 2549 ft | 203 kts | 312° |
| 2026-04-26 14:50 | 26.06401 | 127.65724 | 2337 ft | 188 kts | 347° |
| 2026-04-26 14:50 | 26.07648 | 127.65478 | 2077 ft | 174 kts | 349° |
| 2026-04-26 14:50 | 26.08786 | 127.65285 | 1874 ft | 156 kts | 352° |
| 2026-04-26 14:50 | 26.09806 | 127.65191 | 1657 ft | 141 kts | 354° |
| 2026-04-26 14:51 | 26.10762 | 127.65129 | 1492 ft | 138 kts | 355° |
| 2026-04-26 14:51 | 26.11718 | 127.65071 | 1305 ft | 136 kts | 355° |
| 2026-04-26 14:51 | 26.12658 | 127.65016 | 1126 ft | 136 kts | 355° |
| 2026-04-26 14:51 | 26.13610 | 127.64959 | 948 ft | 137 kts | 355° |
| 2026-04-26 14:52 | 26.14554 | 127.64903 | 768 ft | 136 kts | 355° |
| 2026-04-26 14:52 | 26.15511 | 127.64823 | 577 ft | 138 kts | 353° |
| 2026-04-26 14:52 | 26.16451 | 127.64719 | 364 ft | 133 kts | 0° |
| 2026-04-26 14:52 | 26.17367 | 127.64700 | 233 ft | 134 kts | 357° |
| 2026-04-26 14:53 | 26.18308 | 127.64651 | 46 ft | 132 kts | 356° |
| 2026-04-26 14:53 | 26.19133 | 127.64613 | 25 ft | 98 kts | 358° |
| 2026-04-26 14:53 | 26.19667 | 127.64590 | 19 ft | 55 kts | 358° |
| 2026-04-26 14:53 | 26.20002 | 127.64574 | 19 ft | 46 kts | 358° |
| 2026-04-26 14:54 | 26.20251 | 127.64609 | 22 ft | 34 kts | 16° |
| 2026-04-26 14:54 | 26.20397 | 127.64686 | 21 ft | 22 kts | 28° |
| 2026-04-26 14:54 | 26.20474 | 127.64731 | 21 ft | 11 kts | 27° |
| 2026-04-26 14:54 | 26.20542 | 127.64757 | 21 ft | 9 kts | 1° |
| 2026-04-26 14:55 | 26.20599 | 127.64769 | 21 ft | 7 kts | 30° |
| 2026-04-26 14:55 | 26.20629 | 127.64809 | 23 ft | 6 kts | 65° |
| 2026-04-26 14:55 | 26.20634 | 127.64854 | 21 ft | 5 kts | 91° |
| 2026-04-26 14:55 | 26.20636 | 127.64888 | 21 ft | 4 kts | 84° |
| 2026-04-26 14:56 | 26.20638 | 127.64916 | 23 ft | 3 kts | 87° |
| 2026-04-26 14:56 | 26.20639 | 127.64940 | 21 ft | 3 kts | 87° |
| 2026-04-26 14:56 | 26.20636 | 127.64960 | 22 ft | 3 kts | 112° |
| 2026-04-26 14:56 | 26.20620 | 127.64973 | 21 ft | 3 kts | 151° |
| 2026-04-26 14:57 | 26.20600 | 127.64985 | 23 ft | 3 kts | 150° |
| 2026-04-26 14:57 | 26.20582 | 127.64999 | 21 ft | 3 kts | 148° |
| 2026-04-26 14:57 | 26.20575 | 127.65003 | 21 ft | 0 kts | 147° |
| 2026-04-26 14:57 | 26.20574 | 127.65004 | 21 ft | 0 kts | 147° |